createdAt,value
2017-04-01T00:00:25.750Z,14.36
2017-04-01T00:01:06.259Z,14.32
2017-04-01T00:01:46.787Z,14.29
2017-04-01T00:02:27.312Z,14.32
2017-04-01T00:03:07.829Z,14.24
2017-04-01T00:03:48.330Z,14.25
2017-04-01T00:04:28.854Z,14.27
2017-04-01T00:05:09.406Z,14.21
2017-04-01T00:05:49.888Z,14.15
2017-04-01T00:06:30.404Z,14.17
2017-04-01T00:07:10.913Z,14.15
2017-04-01T00:07:51.441Z,14.14
2017-04-01T00:08:31.961Z,14.07
2017-04-01T00:09:12.483Z,14.06
2017-04-01T00:09:53.011Z,14
2017-04-01T00:10:33.506Z,14.03
2017-04-01T00:11:14.023Z,14.03
2017-04-01T00:11:54.549Z,14
2017-04-01T00:12:35.049Z,14.02
2017-04-01T00:13:15.551Z,14
2017-04-01T00:13:56.082Z,14
2017-04-01T00:14:36.596Z,13.99
2017-04-01T00:15:17.116Z,14.02
2017-04-01T00:15:57.639Z,13.97
2017-04-01T00:16:38.149Z,13.95
2017-04-01T00:17:18.652Z,13.91
2017-04-01T00:17:59.175Z,13.89
2017-04-01T00:18:39.688Z,13.92
2017-04-01T00:19:20.200Z,13.88
2017-04-01T00:20:00.729Z,13.87
2017-04-01T00:20:41.251Z,13.88
2017-04-01T00:21:21.763Z,13.82
2017-04-01T00:22:02.289Z,13.87
2017-04-01T00:22:42.810Z,13.77
2017-04-01T00:23:23.335Z,13.84
2017-04-01T00:24:03.844Z,13.95
2017-04-01T00:24:44.370Z,13.79
2017-04-01T00:25:24.880Z,13.84
2017-04-01T00:26:05.396Z,13.85
2017-04-01T00:26:45.922Z,13.81
2017-04-01T00:27:26.448Z,13.77
2017-04-01T00:28:06.952Z,13.85
2017-04-01T00:28:47.463Z,13.84
2017-04-01T00:29:27.986Z,13.77
2017-04-01T00:30:08.507Z,13.7
2017-04-01T00:30:49.031Z,13.7
2017-04-01T00:31:29.545Z,13.67
2017-04-01T00:32:10.090Z,13.71
2017-04-01T00:32:50.616Z,13.63
2017-04-01T00:33:31.130Z,13.66
2017-04-01T00:34:11.650Z,13.63
2017-04-01T00:34:52.160Z,13.62
2017-04-01T00:35:32.671Z,13.57
2017-04-01T00:36:13.177Z,13.55
2017-04-01T00:36:53.697Z,13.57
2017-04-01T00:37:34.209Z,13.59
2017-04-01T00:38:14.722Z,13.55
2017-04-01T00:38:55.244Z,13.57
2017-04-01T00:39:35.764Z,13.59
2017-04-01T00:40:16.288Z,13.54
2017-04-01T00:40:56.812Z,13.57
2017-04-01T00:41:37.333Z,13.44
2017-04-01T00:42:17.856Z,13.55
2017-04-01T00:42:58.371Z,13.41
2017-04-01T00:43:38.882Z,13.46
2017-04-01T00:44:19.385Z,13.46
2017-04-01T00:44:59.896Z,13.3
2017-04-01T00:45:40.400Z,13.33
2017-04-01T00:46:20.897Z,13.25
2017-04-01T00:47:01.424Z,13.28
2017-04-01T00:47:41.931Z,13.26
2017-04-01T00:48:22.445Z,13.25
2017-04-01T00:49:02.962Z,13.22
2017-04-01T00:49:43.487Z,13.15
2017-04-01T00:50:24.004Z,13.19
2017-04-01T00:51:04.534Z,13.17
2017-04-01T00:51:45.080Z,13.15
2017-04-01T00:52:25.578Z,13.19
2017-04-01T00:53:06.112Z,13.19
2017-04-01T00:53:46.646Z,13.19
2017-04-01T00:54:27.165Z,13.2
2017-04-01T00:55:07.675Z,13.15
2017-04-01T00:55:48.181Z,13.19
2017-04-01T00:56:28.683Z,13.14
2017-04-01T00:57:09.178Z,13.14
2017-04-01T00:57:49.674Z,13.12
2017-04-01T00:58:30.199Z,13.1
2017-04-01T00:59:10.718Z,13.07
2017-04-01T00:59:51.226Z,13.05
2017-04-01T01:00:31.738Z,13.03
2017-04-01T01:01:12.246Z,13.03
2017-04-01T01:01:52.749Z,13.03
2017-04-01T01:02:33.266Z,13.05
2017-04-01T01:03:13.756Z,12.96
2017-04-01T01:03:54.266Z,12.95
2017-04-01T01:04:34.772Z,12.92
2017-04-01T01:05:15.305Z,12.82
2017-04-01T01:05:55.820Z,12.79
2017-04-01T01:06:36.317Z,12.78
2017-04-01T01:07:16.836Z,12.87
2017-04-01T01:07:57.360Z,12.78
2017-04-01T01:08:37.867Z,12.68
2017-04-01T01:09:18.384Z,12.7
2017-04-01T01:09:58.913Z,12.67
2017-04-01T01:10:39.424Z,12.68
2017-04-01T01:11:19.959Z,12.64
2017-04-01T01:12:00.487Z,12.68
2017-04-01T01:12:41.015Z,12.64
2017-04-01T01:13:21.540Z,12.62
2017-04-01T01:14:02.053Z,12.64
2017-04-01T01:14:42.566Z,12.59
2017-04-01T01:15:23.071Z,12.59
2017-04-01T01:16:03.597Z,12.6
2017-04-01T01:16:44.116Z,12.59
2017-04-01T01:17:24.634Z,12.56
2017-04-01T01:18:05.154Z,12.52
2017-04-01T01:18:45.682Z,12.52
2017-04-01T01:19:26.217Z,12.54
2017-04-01T01:20:06.726Z,12.47
2017-04-01T01:20:47.246Z,12.47
2017-04-01T01:21:27.768Z,12.53
2017-04-01T01:22:08.298Z,12.46
2017-04-01T01:22:48.819Z,12.52
2017-04-01T01:23:29.343Z,12.45
2017-04-01T01:24:09.859Z,12.42
2017-04-01T01:24:50.369Z,12.46
2017-04-01T01:25:30.892Z,12.39
2017-04-01T01:26:11.414Z,12.39
2017-04-01T01:26:51.939Z,12.37
2017-04-01T01:27:32.459Z,12.46
2017-04-01T01:28:12.975Z,12.35
2017-04-01T01:28:53.508Z,12.38
2017-04-01T01:29:34.036Z,12.28
2017-04-01T01:30:14.560Z,12.31
2017-04-01T01:30:55.081Z,12.35
2017-04-01T01:31:35.601Z,12.37
2017-04-01T01:32:16.106Z,12.32
2017-04-01T01:32:56.626Z,12.32
2017-04-01T01:33:37.168Z,12.31
2017-04-01T01:34:17.675Z,12.37
2017-04-01T01:34:58.207Z,12.23
2017-04-01T01:35:38.723Z,12.32
2017-04-01T01:36:19.249Z,12.28
2017-04-01T01:36:59.781Z,12.23
2017-04-01T01:37:40.309Z,12.27
2017-04-01T01:38:20.816Z,12.21
2017-04-01T01:39:01.367Z,12.28
2017-04-01T01:39:41.879Z,12.21
2017-04-01T01:40:22.401Z,12.28
2017-04-01T01:41:02.911Z,12.23
2017-04-01T01:41:43.443Z,12.23
2017-04-01T01:42:23.961Z,12.24
2017-04-01T01:43:04.465Z,12.23
2017-04-01T01:43:44.988Z,12.23
2017-04-01T01:44:25.495Z,12.28
2017-04-01T01:45:06.022Z,12.27
2017-04-01T01:45:46.526Z,12.14
2017-04-01T01:46:27.037Z,12.19
2017-04-01T01:47:07.552Z,12.14
2017-04-01T01:47:48.079Z,12.16
2017-04-01T01:48:28.593Z,12.1
2017-04-01T01:49:09.104Z,12.17
2017-04-01T01:49:49.636Z,12.13
2017-04-01T01:50:30.153Z,12.05
2017-04-01T01:51:10.662Z,12.05
2017-04-01T01:51:51.186Z,12.04
2017-04-01T01:52:31.713Z,12.13
2017-04-01T01:53:12.241Z,12.04
2017-04-01T01:53:52.753Z,12.07
2017-04-01T01:54:33.276Z,12.09
2017-04-01T01:55:13.779Z,12.04
2017-04-01T01:55:54.298Z,12.05
2017-04-01T01:56:34.808Z,12.04
2017-04-01T01:57:15.342Z,12.07
2017-04-01T01:57:55.863Z,12.01
2017-04-01T01:58:36.380Z,12.01
2017-04-01T01:59:16.895Z,12.02
2017-04-01T01:59:57.404Z,11.95
2017-04-01T02:00:37.915Z,11.94
2017-04-01T02:01:18.459Z,11.91
2017-04-01T02:01:58.978Z,12.01
2017-04-01T02:02:39.506Z,12.01
2017-04-01T02:03:20.028Z,12.01
2017-04-01T02:04:00.537Z,11.88
2017-04-01T02:04:41.053Z,12.01
2017-04-01T02:05:21.567Z,12.04
2017-04-01T02:06:02.086Z,11.98
2017-04-01T02:06:42.581Z,11.94
2017-04-01T02:07:23.110Z,12.02
2017-04-01T02:08:03.616Z,11.99
2017-04-01T02:08:44.138Z,11.96
2017-04-01T02:09:24.662Z,11.96
2017-04-01T02:10:05.161Z,11.98
2017-04-01T02:10:45.684Z,11.95
2017-04-01T02:11:26.211Z,11.96
2017-04-01T02:12:06.739Z,11.85
2017-04-01T02:12:47.247Z,11.86
2017-04-01T02:13:27.760Z,11.91
2017-04-01T02:14:08.266Z,11.82
2017-04-01T02:14:48.789Z,11.79
2017-04-01T02:15:29.301Z,11.85
2017-04-01T02:16:09.811Z,11.76
2017-04-01T02:16:50.313Z,11.78
2017-04-01T02:17:30.934Z,11.85
2017-04-01T02:18:11.436Z,11.75
2017-04-01T02:18:51.951Z,11.8
2017-04-01T02:19:32.460Z,11.73
2017-04-01T02:20:12.962Z,11.8
2017-04-01T02:20:53.464Z,11.78
2017-04-01T02:21:33.995Z,11.76
2017-04-01T02:22:14.499Z,11.72
2017-04-01T02:22:55.011Z,11.75
2017-04-01T02:23:35.524Z,11.85
2017-04-01T02:24:16.039Z,11.72
2017-04-01T02:24:56.552Z,11.73
2017-04-01T02:25:37.069Z,11.79
2017-04-01T02:26:17.597Z,11.76
2017-04-01T02:26:58.113Z,11.75
2017-04-01T02:27:38.633Z,11.85
2017-04-01T02:28:19.160Z,11.83
2017-04-01T02:28:59.657Z,11.7
2017-04-01T02:29:40.169Z,11.69
2017-04-01T02:30:20.718Z,11.75
2017-04-01T02:31:01.265Z,11.73
2017-04-01T02:31:41.777Z,11.7
2017-04-01T02:32:22.307Z,11.6
2017-04-01T02:33:02.816Z,11.62
2017-04-01T02:33:43.336Z,11.65
2017-04-01T02:34:23.847Z,11.6
2017-04-01T02:35:04.374Z,11.58
2017-04-01T02:35:44.915Z,11.7
2017-04-01T02:36:25.436Z,11.67
2017-04-01T02:37:05.958Z,11.52
2017-04-01T02:37:46.479Z,11.62
2017-04-01T02:38:27.005Z,11.62
2017-04-01T02:39:07.515Z,11.55
2017-04-01T02:39:48.029Z,11.62
2017-04-01T02:40:28.546Z,11.6
2017-04-01T02:41:09.051Z,11.64
2017-04-01T02:41:49.566Z,11.62
2017-04-01T02:42:30.082Z,11.61
2017-04-01T02:43:10.580Z,11.64
2017-04-01T02:43:51.078Z,11.61
2017-04-01T02:44:31.581Z,11.51
2017-04-01T02:45:12.081Z,11.65
2017-04-01T02:45:52.603Z,11.57
2017-04-01T02:46:33.123Z,11.52
2017-04-01T02:47:13.646Z,11.55
2017-04-01T02:47:54.144Z,11.51
2017-04-01T02:48:34.675Z,11.55
2017-04-01T02:49:15.192Z,11.54
2017-04-01T02:49:55.711Z,11.49
2017-04-01T02:50:36.231Z,11.46
2017-04-01T02:51:16.738Z,11.55
2017-04-01T02:51:57.244Z,11.52
2017-04-01T02:52:37.766Z,11.39
2017-04-01T02:53:18.288Z,11.39
2017-04-01T02:53:58.785Z,11.43
2017-04-01T02:54:39.282Z,11.39
2017-04-01T02:55:19.813Z,11.39
2017-04-01T02:56:00.349Z,11.4
2017-04-01T02:56:40.869Z,11.43
2017-04-01T02:57:21.389Z,11.42
2017-04-01T02:58:01.894Z,11.39
2017-04-01T02:58:42.430Z,11.39
2017-04-01T02:59:22.945Z,11.4
2017-04-01T03:00:03.453Z,11.39
2017-04-01T03:00:43.970Z,11.46
2017-04-01T03:01:24.503Z,11.39
2017-04-01T03:02:05.019Z,11.39
2017-04-01T03:02:45.521Z,11.37
2017-04-01T03:03:26.038Z,11.4
2017-04-01T03:04:06.562Z,11.36
2017-04-01T03:04:47.078Z,11.37
2017-04-01T03:05:27.589Z,11.4
2017-04-01T03:06:08.098Z,11.4
2017-04-01T03:06:48.627Z,11.4
2017-04-01T03:07:29.150Z,11.35
2017-04-01T03:08:09.649Z,11.43
2017-04-01T03:08:50.179Z,11.4
2017-04-01T03:09:30.687Z,11.43
2017-04-01T03:10:11.195Z,11.4
2017-04-01T03:10:51.715Z,11.42
2017-04-01T03:11:32.236Z,11.43
2017-04-01T03:12:12.741Z,11.46
2017-04-01T03:12:53.257Z,11.4
2017-04-01T03:13:33.786Z,11.36
2017-04-01T03:14:14.307Z,11.33
2017-04-01T03:14:54.828Z,11.35
2017-04-01T03:15:35.342Z,11.37
2017-04-01T03:16:15.844Z,11.32
2017-04-01T03:16:56.383Z,11.28
2017-04-01T03:17:36.900Z,11.29
2017-04-01T03:18:17.395Z,11.25
2017-04-01T03:18:57.907Z,11.22
2017-04-01T03:19:38.419Z,11.28
2017-04-01T03:20:18.952Z,11.27
2017-04-01T03:20:59.457Z,11.28
2017-04-01T03:21:39.976Z,11.15
2017-04-01T03:22:20.510Z,11.17
2017-04-01T03:23:01.026Z,11.17
2017-04-01T03:23:41.540Z,11.17
2017-04-01T03:24:22.070Z,11.18
2017-04-01T03:25:02.596Z,11.15
2017-04-01T03:25:43.109Z,11.21
2017-04-01T03:26:23.626Z,11.18
2017-04-01T03:27:04.149Z,11.21
2017-04-01T03:27:44.670Z,11.04
2017-04-01T03:28:25.186Z,11.18
2017-04-01T03:29:05.683Z,11.15
2017-04-01T03:29:46.195Z,11.06
2017-04-01T03:30:26.735Z,11.09
2017-04-01T03:31:07.290Z,11.21
2017-04-01T03:31:47.787Z,11.19
2017-04-01T03:32:28.342Z,11.07
2017-04-01T03:33:08.866Z,11.07
2017-04-01T03:33:49.450Z,11.06
2017-04-01T03:34:30.037Z,11.06
2017-04-01T03:35:10.580Z,11.14
2017-04-01T03:35:51.959Z,11.18
2017-04-01T03:36:32.501Z,11.14
2017-04-01T03:37:13.012Z,11.18
2017-04-01T03:37:53.565Z,11.15
2017-04-01T03:38:34.100Z,11.09
2017-04-01T03:39:14.589Z,11.03
2017-04-01T03:39:55.073Z,11.02
2017-04-01T03:40:35.584Z,11.03
2017-04-01T03:41:16.067Z,11.07
2017-04-01T03:41:56.597Z,11.03
2017-04-01T03:42:37.139Z,10.96
2017-04-01T03:43:17.667Z,10.91
2017-04-01T03:43:58.179Z,10.97
2017-04-01T03:44:38.795Z,10.91
2017-04-01T03:45:19.359Z,10.88
2017-04-01T03:45:59.901Z,10.88
2017-04-01T03:46:40.467Z,10.86
2017-04-01T03:47:21.027Z,10.86
2017-04-01T03:48:01.565Z,10.85
2017-04-01T03:48:42.089Z,10.85
2017-04-01T03:49:22.710Z,10.86
2017-04-01T03:50:03.292Z,10.92
2017-04-01T03:50:43.783Z,10.82
2017-04-01T03:51:24.310Z,10.85
2017-04-01T03:52:04.840Z,10.88
2017-04-01T03:52:45.318Z,10.86
2017-04-01T03:53:25.850Z,10.86
2017-04-01T03:54:06.409Z,10.91
2017-04-01T03:54:46.891Z,10.88
2017-04-01T03:55:27.430Z,10.79
2017-04-01T03:56:08.090Z,10.82
2017-04-01T03:56:48.649Z,10.84
2017-04-01T03:57:29.184Z,10.81
2017-04-01T03:58:09.699Z,10.78
2017-04-01T03:58:50.243Z,10.82
2017-04-01T03:59:30.746Z,10.74
2017-04-01T04:00:11.227Z,10.89
2017-04-01T04:00:51.736Z,10.7
2017-04-01T04:01:32.255Z,10.85
2017-04-01T04:02:12.768Z,10.74
2017-04-01T04:02:53.297Z,10.76
2017-04-01T04:03:33.802Z,10.78
2017-04-01T04:04:14.339Z,10.81
2017-04-01T04:04:54.848Z,10.82
2017-04-01T04:05:35.379Z,10.76
2017-04-01T04:06:15.889Z,10.71
2017-04-01T04:06:56.392Z,10.82
2017-04-01T04:07:36.916Z,10.73
2017-04-01T04:08:17.438Z,10.66
2017-04-01T04:08:57.958Z,10.68
2017-04-01T04:09:38.464Z,10.71
2017-04-01T04:10:18.973Z,10.68
2017-04-01T04:10:59.490Z,10.67
2017-04-01T04:11:40.003Z,10.68
2017-04-01T04:12:20.514Z,10.61
2017-04-01T04:13:01.072Z,10.67
2017-04-01T04:13:41.593Z,10.71
2017-04-01T04:14:22.099Z,10.74
2017-04-01T04:15:02.619Z,10.7
2017-04-01T04:15:43.142Z,10.71
2017-04-01T04:16:23.652Z,10.67
2017-04-01T04:17:04.164Z,10.63
2017-04-01T04:17:44.680Z,10.68
2017-04-01T04:18:25.194Z,10.61
2017-04-01T04:19:05.719Z,10.56
2017-04-01T04:19:46.232Z,10.7
2017-04-01T04:20:26.746Z,10.74
2017-04-01T04:21:07.267Z,10.7
2017-04-01T04:21:47.783Z,10.7
2017-04-01T04:22:28.289Z,10.66
2017-04-01T04:23:08.798Z,10.76
2017-04-01T04:23:49.302Z,10.76
2017-04-01T04:24:29.817Z,10.79
2017-04-01T04:25:10.342Z,10.78
2017-04-01T04:25:50.849Z,10.84
2017-04-01T04:26:31.385Z,10.7
2017-04-01T04:27:11.889Z,10.73
2017-04-01T04:27:52.409Z,10.73
2017-04-01T04:28:32.908Z,10.76
2017-04-01T04:29:13.430Z,10.79
2017-04-01T04:29:53.956Z,10.76
2017-04-01T04:30:34.467Z,10.76
2017-04-01T04:31:14.981Z,10.7
2017-04-01T04:31:55.492Z,10.76
2017-04-01T04:32:36.001Z,10.79
2017-04-01T04:33:16.521Z,10.76
2017-04-01T04:33:57.036Z,10.82
2017-04-01T04:34:37.531Z,10.79
2017-04-01T04:35:18.060Z,10.79
2017-04-01T04:35:58.566Z,10.76
2017-04-01T04:36:39.086Z,10.79
2017-04-01T04:37:19.618Z,10.76
2017-04-01T04:38:00.179Z,10.76
2017-04-01T04:38:40.695Z,10.74
2017-04-01T04:39:21.209Z,10.88
2017-04-01T04:40:01.721Z,10.82
2017-04-01T04:40:42.234Z,10.85
2017-04-01T04:41:22.760Z,10.79
2017-04-01T04:42:03.249Z,10.79
2017-04-01T04:42:43.761Z,10.85
2017-04-01T04:43:24.278Z,10.79
2017-04-01T04:44:04.822Z,10.88
2017-04-01T04:44:45.334Z,10.89
2017-04-01T04:45:25.869Z,10.74
2017-04-01T04:46:06.390Z,10.74
2017-04-01T04:46:46.898Z,10.81
2017-04-01T04:47:27.408Z,10.78
2017-04-01T04:48:07.920Z,10.74
2017-04-01T04:48:48.447Z,10.84
2017-04-01T04:49:28.973Z,10.74
2017-04-01T04:50:09.491Z,10.76
2017-04-01T04:50:49.999Z,10.71
2017-04-01T04:51:30.508Z,10.76
2017-04-01T04:52:11.034Z,10.82
2017-04-01T04:52:51.554Z,10.85
2017-04-01T04:53:32.080Z,10.76
2017-04-01T04:54:12.595Z,10.88
2017-04-01T04:54:53.114Z,10.86
2017-04-01T04:55:33.607Z,10.85
2017-04-01T04:56:14.122Z,10.79
2017-04-01T04:56:54.633Z,10.88
2017-04-01T04:57:35.157Z,10.78
2017-04-01T04:58:15.685Z,10.88
2017-04-01T04:58:56.208Z,10.85
2017-04-01T04:59:36.711Z,10.81
2017-04-01T05:00:17.226Z,10.85
2017-04-01T05:00:57.736Z,10.78
2017-04-01T05:01:38.257Z,10.79
2017-04-01T05:02:18.767Z,10.78
2017-04-01T05:02:59.278Z,10.74
2017-04-01T05:03:39.781Z,10.73
2017-04-01T05:04:20.291Z,10.64
2017-04-01T05:05:00.809Z,10.66
2017-04-01T05:05:41.318Z,10.74
2017-04-01T05:06:21.842Z,10.63
2017-04-01T05:07:02.355Z,10.7
2017-04-01T05:07:42.870Z,10.64
2017-04-01T05:08:23.382Z,10.61
2017-04-01T05:09:03.892Z,10.61
2017-04-01T05:09:44.408Z,10.63
2017-04-01T05:10:24.922Z,10.67
2017-04-01T05:11:05.459Z,10.7
2017-04-01T05:11:45.995Z,10.67
2017-04-01T05:12:26.502Z,10.7
2017-04-01T05:13:07.003Z,10.71
2017-04-01T05:13:47.531Z,10.68
2017-04-01T05:14:28.074Z,10.74
2017-04-01T05:15:08.578Z,10.76
2017-04-01T05:15:49.084Z,10.76
2017-04-01T05:16:29.604Z,10.79
2017-04-01T05:17:10.125Z,10.76
2017-04-01T05:17:50.651Z,10.91
2017-04-01T05:18:31.166Z,10.79
2017-04-01T05:19:11.693Z,10.73
2017-04-01T05:19:52.201Z,10.79
2017-04-01T05:20:32.718Z,10.84
2017-04-01T05:21:13.245Z,10.79
2017-04-01T05:21:53.761Z,10.91
2017-04-01T05:22:34.301Z,10.84
2017-04-01T05:23:14.835Z,10.82
2017-04-01T05:23:55.380Z,10.81
2017-04-01T05:24:35.922Z,10.84
2017-04-01T05:25:16.439Z,10.88
2017-04-01T05:25:56.954Z,10.85
2017-04-01T05:26:37.468Z,10.89
2017-04-01T05:27:17.999Z,10.88
2017-04-01T05:27:58.519Z,10.91
2017-04-01T05:28:39.028Z,10.81
2017-04-01T05:29:19.542Z,10.85
2017-04-01T05:30:00.065Z,10.85
2017-04-01T05:30:40.585Z,10.82
2017-04-01T05:31:21.097Z,10.86
2017-04-01T05:32:01.647Z,10.82
2017-04-01T05:32:42.147Z,10.96
2017-04-01T05:33:22.638Z,10.94
2017-04-01T05:34:03.164Z,10.99
2017-04-01T05:34:43.718Z,10.99
2017-04-01T05:35:24.233Z,11.02
2017-04-01T05:36:04.728Z,11.03
2017-04-01T05:36:45.247Z,11.04
2017-04-01T05:37:25.776Z,11.04
2017-04-01T05:38:06.299Z,11.11
2017-04-01T05:38:46.810Z,11.04
2017-04-01T05:39:27.309Z,11.14
2017-04-01T05:40:07.832Z,11.17
2017-04-01T05:40:48.357Z,11.15
2017-04-01T05:41:28.863Z,11.09
2017-04-01T05:42:09.391Z,11.19
2017-04-01T05:42:49.903Z,11.21
2017-04-01T05:43:30.436Z,11.17
2017-04-01T05:44:10.968Z,11.21
2017-04-01T05:44:51.490Z,11.21
2017-04-01T05:45:31.997Z,11.21
2017-04-01T05:46:12.509Z,11.24
2017-04-01T05:46:53.014Z,11.18
2017-04-01T05:47:33.543Z,11.19
2017-04-01T05:48:14.061Z,11.19
2017-04-01T05:48:54.571Z,11.24
2017-04-01T05:49:35.110Z,11.28
2017-04-01T05:50:15.632Z,11.17
2017-04-01T05:50:56.199Z,11.17
2017-04-01T05:51:36.992Z,11.18
2017-04-01T05:52:17.579Z,11.25
2017-04-01T05:52:58.105Z,11.24
2017-04-01T05:53:38.604Z,11.24
2017-04-01T05:54:19.133Z,11.22
2017-04-01T05:54:59.646Z,11.17
2017-04-01T05:55:40.168Z,11.21
2017-04-01T05:56:20.689Z,11.11
2017-04-01T05:57:01.212Z,11.24
2017-04-01T05:57:41.740Z,11.21
2017-04-01T05:58:22.259Z,11.19
2017-04-01T05:59:02.800Z,11.25
2017-04-01T05:59:43.320Z,11.27
2017-04-01T06:00:23.821Z,11.25
2017-04-01T06:01:04.349Z,11.21
2017-04-01T06:01:44.865Z,11.27
2017-04-01T06:02:25.406Z,11.27
2017-04-01T06:03:05.909Z,11.21
2017-04-01T06:03:46.406Z,11.29
2017-04-01T06:04:26.937Z,11.28
2017-04-01T06:05:07.457Z,11.35
2017-04-01T06:05:47.980Z,11.28
2017-04-01T06:06:28.505Z,11.32
2017-04-01T06:07:09.016Z,11.28
2017-04-01T06:07:49.523Z,11.32
2017-04-01T06:08:30.102Z,11.32
2017-04-01T06:09:10.574Z,11.36
2017-04-01T06:09:51.089Z,11.33
2017-04-01T06:10:31.615Z,11.25
2017-04-01T06:11:12.119Z,11.36
2017-04-01T06:11:52.633Z,11.35
2017-04-01T06:12:33.136Z,11.37
2017-04-01T06:13:13.665Z,11.37
2017-04-01T06:13:54.161Z,11.37
2017-04-01T06:14:34.700Z,11.35
2017-04-01T06:15:15.203Z,11.43
2017-04-01T06:15:55.702Z,11.4
2017-04-01T06:16:36.234Z,11.43
2017-04-01T06:17:16.765Z,11.39
2017-04-01T06:17:57.305Z,11.55
2017-04-01T06:18:37.829Z,11.52
2017-04-01T06:19:18.348Z,11.49
2017-04-01T06:19:58.873Z,11.54
2017-04-01T06:20:39.379Z,11.49
2017-04-01T06:21:19.905Z,11.47
2017-04-01T06:22:00.427Z,11.61
2017-04-01T06:22:40.954Z,11.58
2017-04-01T06:23:21.477Z,11.62
2017-04-01T06:24:02.009Z,11.69
2017-04-01T06:24:42.521Z,11.7
2017-04-01T06:25:23.047Z,11.76
2017-04-01T06:26:03.573Z,11.7
2017-04-01T06:26:44.066Z,11.79
2017-04-01T06:27:24.563Z,11.73
2017-04-01T06:28:05.090Z,11.72
2017-04-01T06:28:45.588Z,11.8
2017-04-01T06:29:26.099Z,11.83
2017-04-01T06:30:06.628Z,11.79
2017-04-01T06:30:47.109Z,11.79
2017-04-01T06:31:27.633Z,11.95
2017-04-01T06:32:08.182Z,11.91
2017-04-01T06:32:48.673Z,11.85
2017-04-01T06:33:29.191Z,11.86
2017-04-01T06:34:09.697Z,11.91
2017-04-01T06:34:50.203Z,11.96
2017-04-01T06:35:30.717Z,11.99
2017-04-01T06:36:11.230Z,11.94
2017-04-01T06:36:51.746Z,11.98
2017-04-01T06:37:32.249Z,12.09
2017-04-01T06:38:12.772Z,12.01
2017-04-01T06:38:53.301Z,11.98
2017-04-01T06:39:33.813Z,12.16
2017-04-01T06:40:14.318Z,12.1
2017-04-01T06:40:54.832Z,12.19
2017-04-01T06:41:35.355Z,12.13
2017-04-01T06:42:15.868Z,12.19
2017-04-01T06:42:56.370Z,12.17
2017-04-01T06:43:36.884Z,12.19
2017-04-01T06:44:17.399Z,12.16
2017-04-01T06:44:57.909Z,12.24
2017-04-01T06:45:38.423Z,12.14
2017-04-01T06:46:18.935Z,12.21
2017-04-01T06:46:59.461Z,12.27
2017-04-01T06:47:40.002Z,12.23
2017-04-01T06:48:20.575Z,12.29
2017-04-01T06:49:01.113Z,12.31
2017-04-01T06:49:41.628Z,12.38
2017-04-01T06:50:22.154Z,12.34
2017-04-01T06:51:02.690Z,12.31
2017-04-01T06:51:43.191Z,12.31
2017-04-01T06:52:23.724Z,12.28
2017-04-01T06:53:04.252Z,12.37
2017-04-01T06:53:44.811Z,12.42
2017-04-01T06:54:25.412Z,12.46
2017-04-01T06:55:05.938Z,12.5
2017-04-01T06:55:46.485Z,12.49
2017-04-01T06:56:27.009Z,12.6
2017-04-01T06:57:07.549Z,12.57
2017-04-01T06:58:46.638Z,12.59
2017-04-01T06:59:27.088Z,12.6
2017-04-01T07:00:08.564Z,12.57
2017-04-01T07:00:49.263Z,12.64
2017-04-01T07:01:29.787Z,12.65
2017-04-01T07:02:10.280Z,12.59
2017-04-01T07:02:50.779Z,12.71
2017-04-01T07:03:31.305Z,12.7
2017-04-01T07:04:11.849Z,12.68
2017-04-01T07:04:52.355Z,12.7
2017-04-01T07:05:32.866Z,12.7
2017-04-01T07:06:13.375Z,12.64
2017-04-01T07:06:53.921Z,12.64
2017-04-01T07:07:34.391Z,12.68
2017-04-01T07:08:14.895Z,12.71
2017-04-01T07:08:55.387Z,12.7
2017-04-01T07:09:35.912Z,12.79
2017-04-01T07:10:16.447Z,12.77
2017-04-01T07:10:56.990Z,12.77
2017-04-01T07:11:37.536Z,12.78
2017-04-01T07:12:18.087Z,12.78
2017-04-01T07:12:58.610Z,12.78
2017-04-01T07:13:39.118Z,12.78
2017-04-01T07:14:19.631Z,12.82
2017-04-01T07:15:00.141Z,12.82
2017-04-01T07:15:40.643Z,12.89
2017-04-01T07:16:21.134Z,12.85
2017-04-01T07:17:01.644Z,12.92
2017-04-01T07:17:42.198Z,12.96
2017-04-01T07:18:22.734Z,12.93
2017-04-01T07:19:03.543Z,12.9
2017-04-01T07:19:44.642Z,12.96
2017-04-01T07:20:25.231Z,13.01
2017-04-01T07:21:05.770Z,13.03
2017-04-01T07:21:46.452Z,13.04
2017-04-01T07:22:26.912Z,13.07
2017-04-01T07:23:08.450Z,13.08
2017-04-01T07:23:48.927Z,13.14
2017-04-01T07:24:29.481Z,13.12
2017-04-01T07:25:10.035Z,13.11
2017-04-01T07:25:50.600Z,13.17
2017-04-01T07:26:31.091Z,13.22
2017-04-01T07:27:11.635Z,13.23
2017-04-01T07:27:52.147Z,13.23
2017-04-01T07:28:32.645Z,13.26
2017-04-01T07:29:13.172Z,13.29
2017-04-01T07:29:53.749Z,13.26
2017-04-01T07:30:34.288Z,13.23
2017-04-01T07:31:14.800Z,13.25
2017-04-01T07:31:55.295Z,13.28
2017-04-01T07:32:35.782Z,13.25
2017-04-01T07:33:16.315Z,13.28
2017-04-01T07:33:56.851Z,13.3
2017-04-01T07:34:37.350Z,13.3
2017-04-01T07:35:17.906Z,13.29
2017-04-01T07:35:58.458Z,13.28
2017-04-01T07:36:38.927Z,13.25
2017-04-01T07:37:19.429Z,13.28
2017-04-01T07:37:59.956Z,13.36
2017-04-01T07:38:40.484Z,13.44
2017-04-01T07:39:21.008Z,13.42
2017-04-01T07:40:01.524Z,13.38
2017-04-01T07:40:42.044Z,13.44
2017-04-01T07:41:22.559Z,13.39
2017-04-01T07:42:03.076Z,13.54
2017-04-01T07:42:43.591Z,13.52
2017-04-01T07:43:24.100Z,13.48
2017-04-01T07:44:04.623Z,13.51
2017-04-01T07:44:45.138Z,13.52
2017-04-01T07:45:25.680Z,13.57
2017-04-01T07:46:06.185Z,13.59
2017-04-01T07:46:46.687Z,13.57
2017-04-01T07:47:27.200Z,13.59
2017-04-01T07:48:07.734Z,13.55
2017-04-01T07:48:48.241Z,13.66
2017-04-01T07:49:28.748Z,13.63
2017-04-01T07:50:09.267Z,13.66
2017-04-01T07:50:49.793Z,13.77
2017-04-01T07:51:30.326Z,13.78
2017-04-01T07:52:10.858Z,13.79
2017-04-01T07:52:51.369Z,13.81
2017-04-01T07:53:31.867Z,13.77
2017-04-01T07:54:12.402Z,13.87
2017-04-01T07:54:52.882Z,13.87
2017-04-01T07:55:33.407Z,13.92
2017-04-01T07:56:13.907Z,13.89
2017-04-01T07:56:54.444Z,13.96
2017-04-01T07:57:34.976Z,14
2017-04-01T07:58:15.487Z,14.06
2017-04-01T07:58:56.000Z,14.04
2017-04-01T07:59:36.537Z,14.21
2017-04-01T08:00:17.061Z,14.17
2017-04-01T08:00:57.593Z,14.21
2017-04-01T08:01:38.111Z,14.22
2017-04-01T08:02:18.630Z,14.25
2017-04-01T08:02:59.150Z,14.39
2017-04-01T08:03:39.667Z,14.39
2017-04-01T08:04:20.217Z,14.54
2017-04-01T08:05:00.736Z,14.55
2017-04-01T08:05:41.263Z,14.62
2017-04-01T08:06:21.794Z,14.69
2017-04-01T08:07:02.308Z,14.72
2017-04-01T08:07:42.833Z,14.72
2017-04-01T08:08:23.328Z,14.83
2017-04-01T08:09:03.856Z,14.81
2017-04-01T08:09:44.378Z,14.95
2017-04-01T08:10:24.870Z,14.98
2017-04-01T08:11:05.390Z,14.92
2017-04-01T08:11:45.913Z,14.89
2017-04-01T08:12:26.423Z,14.89
2017-04-01T08:13:06.929Z,14.8
2017-04-01T08:13:47.423Z,14.84
2017-04-01T08:14:27.953Z,14.84
2017-04-01T08:15:08.500Z,14.86
2017-04-01T08:15:49.029Z,14.88
2017-04-01T08:16:29.541Z,14.84
2017-04-01T08:17:10.075Z,14.84
2017-04-01T08:17:50.615Z,14.84
2017-04-01T08:18:31.136Z,14.78
2017-04-01T08:19:11.682Z,14.78
2017-04-01T08:19:52.200Z,14.8
2017-04-01T08:20:32.712Z,14.78
2017-04-01T08:21:13.247Z,14.69
2017-04-01T08:21:53.807Z,14.64
2017-04-01T08:22:34.339Z,14.7
2017-04-01T08:23:14.843Z,14.65
2017-04-01T08:23:55.358Z,14.6
2017-04-01T08:24:35.861Z,14.55
2017-04-01T08:25:16.365Z,14.52
2017-04-01T08:25:56.896Z,14.47
2017-04-01T08:26:37.409Z,14.52
2017-04-01T08:27:17.928Z,14.46
2017-04-01T08:27:58.434Z,14.43
2017-04-01T08:28:38.962Z,14.43
2017-04-01T08:29:19.492Z,14.45
2017-04-01T08:29:59.980Z,14.42
2017-04-01T08:30:40.510Z,14.47
2017-04-01T08:31:21.041Z,14.55
2017-04-01T08:32:01.548Z,14.6
2017-04-01T08:32:42.098Z,14.57
2017-04-01T08:33:22.631Z,14.62
2017-04-01T08:34:03.152Z,14.61
2017-04-01T08:34:43.702Z,14.58
2017-04-01T08:35:24.238Z,14.55
2017-04-01T08:36:04.782Z,14.55
2017-04-01T08:36:45.381Z,14.58
2017-04-01T08:38:39.463Z,14.61
2017-04-01T08:39:19.938Z,14.69
2017-04-01T08:40:00.461Z,14.8
2017-04-01T08:40:40.976Z,14.83
2017-04-01T08:41:21.498Z,14.81
2017-04-01T08:42:02.016Z,14.86
2017-04-01T08:42:42.541Z,14.99
2017-04-01T08:43:23.035Z,14.94
2017-04-01T08:44:03.561Z,15.02
2017-04-01T08:44:44.071Z,15.06
2017-04-01T08:45:24.580Z,15.02